< < Back
Terminal Aerodrome Forecast


Current Version              Previous Versions:   1  2  3  4  5  6  7  8  9  

Terminal Aerodrome Forecast

859
FTUS42 KTAE 061722
TAFTLH
TAF
KTLH 061722Z 0618/0718 28007KT P6SM SCT035 SCT150 BKN250
     FM061900 26007KT P6SM VCTS SCT040CB
     FM062300 VRB03KT P6SM SCT250=

Latest METAR

105
SAUS80 KWBC 071500
MTRTLH
METAR KTLH 071453Z 26004KT 10SM FEW035 BKN250 31/22 A3018 RMK AO2 SLP218
T03060222 50006


USA.gov is the U.S. government's official web portal to all federal, state and local government web resources and services.